Terminal Aerodrome Forecast
Issued by NWS

Home | Current Version | Previous Version | Text Only | Print | Product List | Glossary On
Versions: 1 2 3 4 5 6 7 8 9 10 11 12 13
872
FTPA31 PHFO 061120
TAFHKO
TAF
PHKO 061120Z 0612/0712 VRB04KT P6SM FEW030 BKN050
     FM062000 27010KT P6SM FEW030 BKN060
     FM070400 VRB06KT P6SM SCT030 BKN050
      TEMPO 0704/0708 VRB06G18KT=

USA.gov is the U.S. government's official web portal to all federal, state and local government web resources and services.